Time;durP1;ratioP1;P1;durP2;ratioP2;P2;SDS_P1;SDS_P2;PMS_P1;PMS_P2;Temp;Humidity;BMP_temperature;BMP_pressure;BME280_temperature;BME280_humidity;BME280_pressure;Samples;Min_cycle;Max_cycle;Signal;HPM_P1;HPM_P2
2021/08/06 00:02:02;;;;;;;10.07;5.40;;;;;;;;;;5008038;28;20033;-77
2021/08/06 00:04:28;;;;;;;14.20;5.47;;;;;;;;;;5025170;28;20417;-78
2021/08/06 00:06:53;;;;;;;18.90;5.72;;;;;;;;;;4993452;28;20034;-77
2021/08/06 00:09:19;;;;;;;17.15;5.38;;;;;;;;;;5008373;28;20076;-77
2021/08/06 00:11:44;;;;;;;12.13;4.90;;;;;;;;;;5022648;28;20148;-77
2021/08/06 00:14:10;;;;;;;11.82;5.60;;;;;;;;;;5009603;28;20041;-76
2021/08/06 00:16:36;;;;;;;12.55;5.03;;;;;;;;;;5025440;28;20383;-77
2021/08/06 00:19:01;;;;;;;11.55;4.88;;;;;;;;;;5025236;28;20474;-77
2021/08/06 00:21:27;;;;;;;10.00;4.95;;;;;;;;;;5027575;28;20099;-77
2021/08/06 00:23:52;;;;;;;9.90;4.93;;;;;;;;;;5026592;28;20647;-77
2021/08/06 00:26:18;;;;;;;13.35;5.00;;;;;;;;;;5006670;28;20102;-77
2021/08/06 00:28:44;;;;;;;7.97;4.38;;;;;;;;;;5022069;28;20033;-76
2021/08/06 00:31:10;;;;;;;16.58;5.07;;;;;;;;;;5005113;28;20033;-77
2021/08/06 00:33:35;;;;;;;11.30;4.82;;;;;;;;;;5025975;28;20048;-77
2021/08/06 00:36:01;;;;;;;10.35;4.60;;;;;;;;;;5006925;28;20044;-77
2021/08/06 00:38:26;;;;;;;11.95;4.38;;;;;;;;;;5005064;28;20049;-77
2021/08/06 00:40:52;;;;;;;10.48;4.78;;;;;;;;;;5020880;28;20040;-77
2021/08/06 00:43:17;;;;;;;13.02;5.45;;;;;;;;;;5005996;28;20044;-77
2021/08/06 00:45:44;;;;;;;11.13;5.10;;;;;;;;;;5019610;28;20037;-77
2021/08/06 00:48:09;;;;;;;10.68;5.25;;;;;;;;;;5022338;28;20022;-77
2021/08/06 00:50:35;;;;;;;11.07;5.38;;;;;;;;;;5022615;28;20819;-77
2021/08/06 00:53:01;;;;;;;10.13;5.88;;;;;;;;;;5017655;28;20033;-77
2021/08/06 00:55:27;;;;;;;13.88;5.80;;;;;;;;;;5017395;28;20030;-77
2021/08/06 00:57:52;;;;;;;13.85;6.32;;;;;;;;;;5005816;28;20679;-76
2021/08/06 01:00:18;;;;;;;14.27;6.93;;;;;;;;;;5004297;28;20725;-76
2021/08/06 01:03:04;;;;;;;13.98;5.97;;;;;;;;;;5015341;28;20079;-76
2021/08/06 01:05:34;;;;;;;16.30;6.00;;;;;;;;;;5018915;28;20540;-77
2021/08/06 01:08:24;;;;;;;12.88;5.97;;;;;;;;;;5016276;28;20083;-76
2021/08/06 01:11:00;;;;;;;11.07;5.53;;;;;;;;;;5018095;28;20081;-77
2021/08/06 01:13:48;;;;;;;21.52;6.60;;;;;;;;;;5024941;28;20335;-77
2021/08/06 01:16:14;;;;;;;13.35;6.60;;;;;;;;;;5016159;28;20053;-77
2021/08/06 01:18:55;;;;;;;16.98;5.75;;;;;;;;;;5009007;28;20437;-77
2021/08/06 01:21:25;;;;;;;12.23;6.43;;;;;;;;;;5021842;28;20556;-76
2021/08/06 01:23:56;;;;;;;14.82;5.75;;;;;;;;;;5020829;28;20696;-77
2021/08/06 01:26:22;;;;;;;16.27;5.68;;;;;;;;;;5018117;28;20033;-77
2021/08/06 01:28:49;;;;;;;13.10;5.45;;;;;;;;;;5006692;28;20026;-77
2021/08/06 01:31:23;;;;;;;13.68;5.82;;;;;;;;;;5008288;28;20033;-76
2021/08/06 01:33:48;;;;;;;17.95;5.75;;;;;;;;;;5025137;28;20059;-77
2021/08/06 01:36:14;;;;;;;16.13;5.90;;;;;;;;;;5023124;28;20589;-76
2021/08/06 01:38:39;;;;;;;11.20;5.50;;;;;;;;;;5017388;28;20052;-77
2021/08/06 01:41:17;;;;;;;15.70;5.22;;;;;;;;;;5020085;28;20038;-77
2021/08/06 01:43:48;;;;;;;16.67;6.25;;;;;;;;;;5024006;28;20103;-77
2021/08/06 01:46:20;;;;;;;19.02;5.45;;;;;;;;;;5022989;28;20540;-78
2021/08/06 01:48:49;;;;;;;18.88;5.50;;;;;;;;;;5022729;28;20033;-77
2021/08/06 01:51:15;;;;;;;15.90;5.82;;;;;;;;;;5023666;28;20025;-77
2021/08/06 01:53:45;;;;;;;14.90;6.28;;;;;;;;;;5019008;28;20112;-77
2021/08/06 01:56:16;;;;;;;17.27;6.28;;;;;;;;;;5014963;28;20398;-77
2021/08/06 01:58:43;;;;;;;17.77;6.97;;;;;;;;;;5021413;28;20108;-76
2021/08/06 02:01:13;;;;;;;13.45;6.43;;;;;;;;;;5023475;28;20037;-77
2021/08/06 02:03:40;;;;;;;13.70;6.78;;;;;;;;;;5008367;28;20034;-77
2021/08/06 02:06:06;;;;;;;16.83;5.97;;;;;;;;;;5005499;28;20041;-77
2021/08/06 02:08:34;;;;;;;13.93;6.53;;;;;;;;;;5019324;28;20029;-77
2021/08/06 02:11:00;;;;;;;13.77;6.60;;;;;;;;;;5017371;28;20045;-77
2021/08/06 02:13:25;;;;;;;12.48;6.63;;;;;;;;;;5023969;28;20496;-77
2021/08/06 02:15:51;;;;;;;13.32;6.30;;;;;;;;;;5021046;28;20041;-76
2021/08/06 02:18:23;;;;;;;8.77;5.13;;;;;;;;;;5018103;28;20079;-78
2021/08/06 02:20:55;;;;;;;10.95;4.70;;;;;;;;;;5024078;28;20033;-77
2021/08/06 02:23:23;;;;;;;12.93;4.80;;;;;;;;;;5018278;28;20053;-77
2021/08/06 02:25:52;;;;;;;13.27;4.85;;;;;;;;;;5020116;28;20036;-77
2021/08/06 02:28:18;;;;;;;9.45;4.65;;;;;;;;;;5017250;28;20148;-76
2021/08/06 02:30:45;;;;;;;12.85;4.57;;;;;;;;;;5023095;28;20030;-77
2021/08/06 02:33:12;;;;;;;9.63;4.45;;;;;;;;;;5024077;28;20039;-77
2021/08/06 02:35:37;;;;;;;7.60;4.60;;;;;;;;;;5021186;28;20025;-77
2021/08/06 02:38:03;;;;;;;14.13;4.57;;;;;;;;;;5016198;28;20080;-77
2021/08/06 02:40:28;;;;;;;9.65;4.80;;;;;;;;;;5016488;28;20061;-78
2021/08/06 02:42:53;;;;;;;15.10;4.55;;;;;;;;;;5016666;28;20045;-77
2021/08/06 02:45:19;;;;;;;9.45;4.40;;;;;;;;;;5021756;28;20120;-77
2021/08/06 02:47:44;;;;;;;7.65;4.10;;;;;;;;;;5021769;28;20028;-77
2021/08/06 02:50:11;;;;;;;8.07;4.43;;;;;;;;;;5007170;28;20026;-77
2021/08/06 02:52:38;;;;;;;8.48;4.18;;;;;;;;;;5017241;28;20071;-77
2021/08/06 02:55:04;;;;;;;8.07;5.03;;;;;;;;;;5022525;28;20402;-77
2021/08/06 02:57:30;;;;;;;10.10;4.47;;;;;;;;;;5020210;28;20044;-78
2021/08/06 02:59:55;;;;;;;9.30;4.57;;;;;;;;;;5021596;28;20069;-77
2021/08/06 03:02:21;;;;;;;12.15;4.60;;;;;;;;;;5018483;28;20557;-75
2021/08/06 03:04:46;;;;;;;10.98;4.88;;;;;;;;;;5003973;28;20040;-78
2021/08/06 03:07:12;;;;;;;11.27;4.20;;;;;;;;;;5018081;28;20035;-76
2021/08/06 03:09:37;;;;;;;12.95;4.80;;;;;;;;;;5006590;28;20099;-76
2021/08/06 03:12:03;;;;;;;11.70;4.57;;;;;;;;;;5022233;28;20061;-78
2021/08/06 03:14:28;;;;;;;8.07;4.32;;;;;;;;;;5005739;28;20086;-76
2021/08/06 03:16:54;;;;;;;11.75;4.40;;;;;;;;;;4997642;28;20037;-78
2021/08/06 03:19:19;;;;;;;15.80;4.60;;;;;;;;;;5017989;28;20025;-77
2021/08/06 03:21:45;;;;;;;6.18;4.07;;;;;;;;;;5018418;28;20087;-78
2021/08/06 03:24:10;;;;;;;11.20;4.60;;;;;;;;;;5005764;28;20080;-75
2021/08/06 03:26:36;;;;;;;11.18;5.07;;;;;;;;;;5018001;28;20068;-77
2021/08/06 03:29:01;;;;;;;8.93;4.55;;;;;;;;;;4990129;28;20065;-78
2021/08/06 03:31:26;;;;;;;14.23;5.07;;;;;;;;;;5004212;28;20042;-77
2021/08/06 03:33:52;;;;;;;13.48;4.60;;;;;;;;;;5017569;28;20045;-77
2021/08/06 03:36:17;;;;;;;11.95;5.28;;;;;;;;;;5020502;28;20112;-76
2021/08/06 03:38:43;;;;;;;11.88;5.07;;;;;;;;;;5024972;28;20533;-78
2021/08/06 03:41:09;;;;;;;9.45;4.65;;;;;;;;;;5024762;28;20061;-77
2021/08/06 03:43:35;;;;;;;16.23;4.82;;;;;;;;;;5016443;28;20030;-80
2021/08/06 03:46:00;;;;;;;18.67;5.95;;;;;;;;;;5010109;28;20033;-77
2021/08/06 03:48:26;;;;;;;8.25;4.63;;;;;;;;;;5019195;28;20685;-78
2021/08/06 03:50:51;;;;;;;15.73;4.78;;;;;;;;;;5017652;28;20048;-79
2021/08/06 03:53:17;;;;;;;18.38;5.03;;;;;;;;;;5020532;28;20033;-79
2021/08/06 03:55:44;;;;;;;8.93;3.83;;;;;;;;;;5021798;28;20029;-78
2021/08/06 03:58:09;;;;;;;10.18;3.75;;;;;;;;;;5022226;28;20033;-78
2021/08/06 04:00:38;;;;;;;12.82;3.90;;;;;;;;;;5026908;28;20033;-80
2021/08/06 04:03:04;;;;;;;33.05;4.43;;;;;;;;;;5026230;28;20059;-81
2021/08/06 04:05:30;;;;;;;14.15;3.42;;;;;;;;;;5022563;28;20105;-80
2021/08/06 04:07:55;;;;;;;7.25;4.00;;;;;;;;;;5023242;28;20120;-80
2021/08/06 04:10:22;;;;;;;7.38;3.70;;;;;;;;;;5007623;28;20077;-78
2021/08/06 04:12:48;;;;;;;12.75;3.63;;;;;;;;;;5024682;28;20040;-79
2021/08/06 04:15:15;;;;;;;7.40;3.30;;;;;;;;;;5010219;28;20033;-80
2021/08/06 04:17:40;;;;;;;7.47;3.25;;;;;;;;;;5024255;28;20474;-78
2021/08/06 04:20:07;;;;;;;9.73;3.08;;;;;;;;;;5018497;28;20120;-79
2021/08/06 04:22:32;;;;;;;15.90;3.03;;;;;;;;;;5023150;28;20064;-77
2021/08/06 04:24:58;;;;;;;13.27;3.33;;;;;;;;;;5024191;28;20057;-78
2021/08/06 04:27:23;;;;;;;9.80;3.30;;;;;;;;;;5007111;28;20110;-79
2021/08/06 04:29:49;;;;;;;15.27;4.30;;;;;;;;;;5019265;28;20437;-79
2021/08/06 04:32:14;;;;;;;7.00;2.75;;;;;;;;;;5020333;28;20462;-78
2021/08/06 04:34:40;;;;;;;17.17;2.95;;;;;;;;;;5024591;28;20037;-79
2021/08/06 04:37:05;;;;;;;15.35;3.30;;;;;;;;;;5023955;28;20817;-78
2021/08/06 04:39:31;;;;;;;13.98;2.20;;;;;;;;;;4991791;28;20033;-78
2021/08/06 04:41:56;;;;;;;7.53;2.60;;;;;;;;;;5022091;28;20025;-79
2021/08/06 04:44:22;;;;;;;5.47;2.10;;;;;;;;;;5004610;28;20037;-79
2021/08/06 04:46:47;;;;;;;7.00;2.30;;;;;;;;;;5003445;28;20741;-79
2021/08/06 04:49:13;;;;;;;8.43;2.50;;;;;;;;;;5003646;28;20040;-78
2021/08/06 04:51:38;;;;;;;10.73;2.75;;;;;;;;;;4988052;28;20725;-78
2021/08/06 04:54:04;;;;;;;8.43;2.35;;;;;;;;;;5023883;28;20029;-78
2021/08/06 04:56:31;;;;;;;11.43;2.58;;;;;;;;;;5021174;28;20034;-77
2021/08/06 04:58:56;;;;;;;7.97;2.50;;;;;;;;;;5006204;28;20517;-78
2021/08/06 05:01:22;;;;;;;11.63;3.08;;;;;;;;;;5022120;28;20038;-78
2021/08/06 05:03:47;;;;;;;7.55;2.78;;;;;;;;;;5025062;28;20056;-78
2021/08/06 05:06:14;;;;;;;10.68;2.65;;;;;;;;;;5007716;28;20037;-78
2021/08/06 05:08:42;;;;;;;7.05;2.33;;;;;;;;;;5003306;28;20041;-77
2021/08/06 05:11:08;;;;;;;4.78;2.35;;;;;;;;;;5020377;28;20045;-78
2021/08/06 05:13:33;;;;;;;13.65;3.78;;;;;;;;;;5022718;28;20018;-78
2021/08/06 05:15:59;;;;;;;12.07;2.17;;;;;;;;;;5001232;28;20493;-80
2021/08/06 05:18:24;;;;;;;4.72;1.80;;;;;;;;;;5004282;28;20119;-78
2021/08/06 05:20:50;;;;;;;9.40;2.30;;;;;;;;;;5025359;28;20052;-79
2021/08/06 05:23:15;;;;;;;7.05;1.60;;;;;;;;;;5017703;28;20850;-77
2021/08/06 05:25:41;;;;;;;8.85;1.90;;;;;;;;;;5013120;28;20471;-76
2021/08/06 05:28:06;;;;;;;4.60;1.60;;;;;;;;;;5004962;28;20044;-78
2021/08/06 05:30:32;;;;;;;9.20;1.70;;;;;;;;;;5021128;28;20064;-79
2021/08/06 05:32:57;;;;;;;7.68;1.42;;;;;;;;;;5021793;28;20692;-79
2021/08/06 05:35:23;;;;;;;5.32;1.42;;;;;;;;;;5022925;28;20061;-79
2021/08/06 05:37:49;;;;;;;3.35;1.30;;;;;;;;;;5020658;28;20041;-78
2021/08/06 05:40:15;;;;;;;3.88;1.00;;;;;;;;;;5017370;28;20026;-79
2021/08/06 05:42:40;;;;;;;5.78;1.10;;;;;;;;;;5018443;28;20026;-79
2021/08/06 05:45:06;;;;;;;1.92;0.80;;;;;;;;;;5005515;28;20037;-76
2021/08/06 05:47:46;;;;;;;6.72;1.00;;;;;;;;;;5018024;28;20055;-80
2021/08/06 05:50:13;;;;;;;5.03;0.88;;;;;;;;;;5022614;28;20111;-78
2021/08/06 05:52:39;;;;;;;5.90;1.00;;;;;;;;;;5021087;28;20041;-79
2021/08/06 05:55:04;;;;;;;5.25;1.02;;;;;;;;;;5019185;28;20037;-79
2021/08/06 05:57:30;;;;;;;9.77;1.50;;;;;;;;;;5017165;28;20069;-80
2021/08/06 05:59:55;;;;;;;6.00;1.65;;;;;;;;;;5022563;28;20028;-77
2021/08/06 06:02:21;;;;;;;4.03;1.77;;;;;;;;;;5020815;28;20030;-78
2021/08/06 06:04:46;;;;;;;7.03;2.03;;;;;;;;;;5021513;28;20033;-79
2021/08/06 06:07:12;;;;;;;7.05;1.92;;;;;;;;;;5005136;28;20585;-79
2021/08/06 06:09:37;;;;;;;4.63;2.05;;;;;;;;;;5018080;28;20032;-78
2021/08/06 06:12:03;;;;;;;8.07;1.92;;;;;;;;;;5023312;28;20532;-80
2021/08/06 06:14:28;;;;;;;4.63;1.85;;;;;;;;;;5022022;28;20124;-78
2021/08/06 06:16:54;;;;;;;4.85;1.10;;;;;;;;;;5021131;28;20041;-79
2021/08/06 06:19:19;;;;;;;4.45;1.20;;;;;;;;;;5007102;28;20025;-77
2021/08/06 06:21:45;;;;;;;4.13;1.10;;;;;;;;;;5020494;28;20281;-79
2021/08/06 06:24:10;;;;;;;2.47;0.80;;;;;;;;;;5005511;28;20025;-77
2021/08/06 06:26:36;;;;;;;3.22;0.80;;;;;;;;;;5016228;28;20033;-78
2021/08/06 06:29:01;;;;;;;5.97;0.80;;;;;;;;;;5025237;28;20088;-79
2021/08/06 06:31:27;;;;;;;3.70;0.77;;;;;;;;;;4988980;28;20033;-78
2021/08/06 06:33:52;;;;;;;3.08;1.13;;;;;;;;;;5021394;28;20052;-78
2021/08/06 06:36:18;;;;;;;5.72;2.33;;;;;;;;;;5018749;28;20025;-77
2021/08/06 06:38:43;;;;;;;7.05;2.55;;;;;;;;;;5021302;28;20040;-78
2021/08/06 06:41:09;;;;;;;11.35;1.65;;;;;;;;;;5019559;28;20441;-78
2021/08/06 06:43:35;;;;;;;5.45;1.95;;;;;;;;;;5023905;28;20112;-77
2021/08/06 06:46:00;;;;;;;3.20;1.40;;;;;;;;;;4989779;28;20499;-78
2021/08/06 06:48:26;;;;;;;6.97;1.80;;;;;;;;;;5004655;28;20025;-75
2021/08/06 06:50:52;;;;;;;6.25;2.00;;;;;;;;;;5018875;28;20033;-78
2021/08/06 06:53:18;;;;;;;5.50;1.40;;;;;;;;;;5022170;28;20033;-78
2021/08/06 06:55:43;;;;;;;13.48;2.67;;;;;;;;;;5023215;28;20018;-79
2021/08/06 06:58:08;;;;;;;7.90;2.05;;;;;;;;;;5002374;28;20594;-79
2021/08/06 07:00:34;;;;;;;10.15;2.22;;;;;;;;;;5017781;28;20041;-79
2021/08/06 07:03:00;;;;;;;15.82;1.70;;;;;;;;;;5004640;28;20130;-79
2021/08/06 07:05:27;;;;;;;12.52;2.42;;;;;;;;;;5013228;28;20175;-76
2021/08/06 07:07:52;;;;;;;11.70;3.47;;;;;;;;;;5023115;28;20469;-79
2021/08/06 07:10:18;;;;;;;9.93;2.30;;;;;;;;;;5019498;28;20072;-77
2021/08/06 07:12:44;;;;;;;14.00;2.60;;;;;;;;;;5014382;28;20678;-79
2021/08/06 07:15:11;;;;;;;13.05;2.78;;;;;;;;;;5020587;28;20116;-77
2021/08/06 07:17:38;;;;;;;16.10;3.00;;;;;;;;;;5021027;28;20025;-80
2021/08/06 07:20:06;;;;;;;10.32;2.20;;;;;;;;;;5009837;28;20021;-79
2021/08/06 07:22:31;;;;;;;17.67;2.38;;;;;;;;;;5018998;28;20075;-77
2021/08/06 07:24:57;;;;;;;9.02;1.75;;;;;;;;;;5004028;28;20698;-76
2021/08/06 07:27:23;;;;;;;8.93;2.85;;;;;;;;;;5019503;28;20036;-78
2021/08/06 07:29:49;;;;;;;16.48;3.40;;;;;;;;;;5017137;28;20086;-78
2021/08/06 07:32:14;;;;;;;19.05;2.78;;;;;;;;;;5023032;28;20036;-77
2021/08/06 07:34:40;;;;;;;17.25;3.03;;;;;;;;;;5021574;28;20033;-79
2021/08/06 07:37:05;;;;;;;20.33;3.70;;;;;;;;;;5023029;28;20112;-77
2021/08/06 07:39:31;;;;;;;17.33;3.42;;;;;;;;;;5025131;28;20041;-78
2021/08/06 07:41:56;;;;;;;20.98;3.83;;;;;;;;;;5024429;28;20037;-77
2021/08/06 07:44:22;;;;;;;24.80;3.65;;;;;;;;;;5010123;28;20038;-79
2021/08/06 07:46:47;;;;;;;10.10;3.13;;;;;;;;;;5007754;28;20045;-77
2021/08/06 07:49:13;;;;;;;22.30;3.60;;;;;;;;;;5018330;28;20087;-82
2021/08/06 07:51:38;;;;;;;17.85;3.60;;;;;;;;;;5018103;28;20845;-78
2021/08/06 07:54:05;;;;;;;27.70;3.95;;;;;;;;;;5021734;28;20041;-77
2021/08/06 07:56:30;;;;;;;26.20;3.75;;;;;;;;;;5021364;28;20044;-78
2021/08/06 07:58:56;;;;;;;15.75;3.72;;;;;;;;;;5021653;28;20029;-78
2021/08/06 08:01:21;;;;;;;23.65;3.90;;;;;;;;;;5020185;28;20041;-81
2021/08/06 08:03:47;;;;;;;26.02;3.67;;;;;;;;;;5019546;28;20033;-78
2021/08/06 08:06:13;;;;;;;17.17;3.17;;;;;;;;;;5020476;28;20029;-78
2021/08/06 08:08:39;;;;;;;22.05;4.85;;;;;;;;;;5005187;28;20121;-80
2021/08/06 08:11:05;;;;;;;14.65;2.90;;;;;;;;;;5004602;28;20132;-77
2021/08/06 08:13:31;;;;;;;21.10;3.67;;;;;;;;;;5006713;28;20061;-78
2021/08/06 08:15:57;;;;;;;24.35;3.85;;;;;;;;;;5006230;28;20068;-78
2021/08/06 08:18:22;;;;;;;21.00;3.42;;;;;;;;;;5022992;28;20128;-78
2021/08/06 08:20:48;;;;;;;18.45;4.05;;;;;;;;;;5021350;28;20047;-78
2021/08/06 08:23:15;;;;;;;18.92;3.13;;;;;;;;;;5002543;28;20041;-77
2021/08/06 08:25:40;;;;;;;23.30;4.20;;;;;;;;;;5021574;28;20025;-77
2021/08/06 08:28:06;;;;;;;25.85;4.90;;;;;;;;;;5022149;28;20043;-78
2021/08/06 08:30:32;;;;;;;21.30;4.07;;;;;;;;;;5018011;28;20033;-80
2021/08/06 08:32:57;;;;;;;19.38;2.95;;;;;;;;;;5024054;28;20065;-80
2021/08/06 08:35:23;;;;;;;24.15;3.53;;;;;;;;;;5019970;28;20025;-78
2021/08/06 08:37:48;;;;;;;15.50;4.20;;;;;;;;;;5022570;28;20502;-77
2021/08/06 08:40:14;;;;;;;17.70;4.07;;;;;;;;;;4998495;28;20393;-76
2021/08/06 08:42:39;;;;;;;23.33;4.38;;;;;;;;;;5005420;28;20030;-79
2021/08/06 08:45:06;;;;;;;13.38;4.03;;;;;;;;;;5001936;28;20033;-78
2021/08/06 08:47:36;;;;;;;23.08;4.60;;;;;;;;;;5016798;28;20087;-78
2021/08/06 08:50:04;;;;;;;21.42;3.75;;;;;;;;;;5008131;28;20040;-78
2021/08/06 08:52:30;;;;;;;24.30;3.75;;;;;;;;;;5021286;28;20533;-77
2021/08/06 08:54:55;;;;;;;21.17;3.75;;;;;;;;;;5007318;28;20087;-81
2021/08/06 08:57:26;;;;;;;27.73;4.10;;;;;;;;;;5016928;28;20033;-77
2021/08/06 08:59:55;;;;;;;28.00;3.70;;;;;;;;;;5013822;28;20528;-76
2021/08/06 09:02:21;;;;;;;17.10;3.28;;;;;;;;;;5023140;28;20030;-77
2021/08/06 09:04:48;;;;;;;22.90;4.50;;;;;;;;;;5020629;28;20036;-78
2021/08/06 09:07:41;;;;;;;17.98;3.50;;;;;;;;;;4994923;28;20064;-78
2021/08/06 09:10:07;;;;;;;;;;;;;;;;;;5014886;28;20601;-78
2021/08/06 09:12:55;;;;;;;26.42;4.32;;;;;;;;;;5019276;28;20305;-77
2021/08/06 09:15:41;;;;;;;24.70;4.22;;;;;;;;;;5017052;28;20083;-77
2021/08/06 09:18:33;;;;;;;15.25;3.75;;;;;;;;;;5023219;28;20028;-77
2021/08/06 09:21:14;;;;;;;25.00;4.65;;;;;;;;;;5015991;28;20115;-79
2021/08/06 09:23:57;;;;;;;26.65;4.40;;;;;;;;;;5022845;28;20100;-79
2021/08/06 09:26:40;;;;;;;15.27;3.03;;;;;;;;;;5015434;28;20709;-73
2021/08/06 09:29:07;;;;;;;22.70;3.53;;;;;;;;;;5022655;28;20036;-78
2021/08/06 09:31:39;;;;;;;37.22;4.53;;;;;;;;;;5020565;28;20061;-76
2021/08/06 09:34:37;;;;;;;;;;;;;;;;;;5026036;28;20101;-76
2021/08/06 09:37:11;;;;;;;26.00;3.42;;;;;;;;;;4976155;28;19917;-78
2021/08/06 09:39:36;;;;;;;16.83;3.90;;;;;;;;;;5020857;28;20041;-75
2021/08/06 09:42:03;;;;;;;16.00;4.18;;;;;;;;;;5020347;28;20021;-78
2021/08/06 09:44:30;;;;;;;20.50;4.32;;;;;;;;;;5022827;28;20163;-79
2021/08/06 09:46:57;;;;;;;16.77;3.50;;;;;;;;;;5021135;28;20762;-76
2021/08/06 09:49:26;;;;;;;19.77;4.18;;;;;;;;;;5023072;28;20099;-79
2021/08/06 09:51:53;;;;;;;28.63;4.25;;;;;;;;;;5005313;28;20080;-76
2021/08/06 09:54:24;;;;;;;24.55;3.90;;;;;;;;;;4986188;28;20044;-79
2021/08/06 09:57:02;;;;;;;21.67;4.57;;;;;;;;;;5022246;28;20029;-77
2021/08/06 09:59:29;;;;;;;27.17;4.93;;;;;;;;;;5018682;28;20036;-77
2021/08/06 10:02:12;;;;;;;23.45;4.30;;;;;;;;;;5018741;28;20036;-80
2021/08/06 10:04:38;;;;;;;27.38;5.85;;;;;;;;;;5015454;28;20037;-78
2021/08/06 10:07:05;;;;;;;14.07;4.00;;;;;;;;;;5023042;28;20040;-76
2021/08/06 10:09:31;;;;;;;16.42;4.57;;;;;;;;;;4998828;28;20029;-75
2021/08/06 10:11:56;;;;;;;19.05;5.55;;;;;;;;;;5011935;28;20053;-78
2021/08/06 10:14:23;;;;;;;24.98;4.68;;;;;;;;;;5002796;28;20056;-79
2021/08/06 10:16:49;;;;;;;26.17;4.30;;;;;;;;;;5023173;28;20029;-79
2021/08/06 10:19:14;;;;;;;21.92;4.28;;;;;;;;;;5005016;28;20086;-78
2021/08/06 10:21:40;;;;;;;21.23;3.88;;;;;;;;;;5016906;28;20036;-78
2021/08/06 10:24:07;;;;;;;35.25;5.10;;;;;;;;;;5017701;28;20037;-80
2021/08/06 10:26:33;;;;;;;26.27;4.50;;;;;;;;;;5016778;28;20025;-80
2021/08/06 10:28:59;;;;;;;23.63;4.18;;;;;;;;;;5007187;28;20066;-78
2021/08/06 10:31:25;;;;;;;30.73;4.60;;;;;;;;;;5019113;28;20116;-77
2021/08/06 10:34:09;;;;;;;18.00;5.07;;;;;;;;;;5020992;28;20194;-78
2021/08/06 10:36:45;;;;;;;16.45;5.18;;;;;;;;;;5023926;28;20183;-76
2021/08/06 10:39:37;;;;;;;24.40;4.38;;;;;;;;;;5014012;28;20044;-79
2021/08/06 10:42:03;;;;;;;20.00;4.57;;;;;;;;;;5019825;28;20083;-81
2021/08/06 10:44:54;;;;;;;18.92;4.43;;;;;;;;;;5001751;28;20095;-78
2021/08/06 10:47:19;;;;;;;23.63;3.80;;;;;;;;;;5019291;28;20033;-79
2021/08/06 10:50:12;;;;;;;14.35;4.28;;;;;;;;;;5023406;28;20089;-77
2021/08/06 10:52:37;;;;;;;21.05;4.90;;;;;;;;;;5016506;28;20509;-79
2021/08/06 10:55:19;;;;;;;18.63;4.80;;;;;;;;;;4985026;28;20053;-79
2021/08/06 10:57:45;;;;;;;22.42;4.57;;;;;;;;;;5020712;28;20669;-80
2021/08/06 11:00:10;;;;;;;16.15;4.00;;;;;;;;;;5004505;28;20132;-78
2021/08/06 11:02:43;;;;;;;17.10;3.95;;;;;;;;;;5018019;28;20103;-78
2021/08/06 11:05:29;;;;;;;11.48;3.30;;;;;;;;;;5019631;28;20051;-80
2021/08/06 11:07:54;;;;;;;38.22;3.67;;;;;;;;;;5013533;28;20164;-80
2021/08/06 11:10:43;;;;;;;13.05;3.35;;;;;;;;;;5020228;28;20145;-84
2021/08/06 11:13:33;;;;;;;23.63;3.42;;;;;;;;;;5009871;28;20568;-78
2021/08/06 11:16:12;;;;;;;15.27;3.88;;;;;;;;;;5018799;28;20032;-79
2021/08/06 11:18:41;;;;;;;14.50;3.40;;;;;;;;;;5004190;28;20021;-80
2021/08/06 11:21:07;;;;;;;16.35;3.92;;;;;;;;;;5019947;28;20544;-80
2021/08/06 11:23:33;;;;;;;12.50;3.00;;;;;;;;;;4985942;28;20129;-78
2021/08/06 11:26:09;;;;;;;11.45;2.90;;;;;;;;;;5000453;28;20056;-79
2021/08/06 11:28:35;;;;;;;13.10;2.83;;;;;;;;;;5020573;28;20033;-78
2021/08/06 11:31:12;;;;;;;11.68;2.83;;;;;;;;;;5004420;28;20920;-79
2021/08/06 11:33:38;;;;;;;13.30;3.75;;;;;;;;;;5023844;28;20371;-77
2021/08/06 11:36:13;;;;;;;13.25;2.80;;;;;;;;;;4986542;28;20044;-79
2021/08/06 11:38:38;;;;;;;17.65;3.08;;;;;;;;;;5017494;28;20054;-78
2021/08/06 11:41:04;;;;;;;11.02;2.25;;;;;;;;;;4995900;28;20064;-76
2021/08/06 11:43:35;;;;;;;9.73;1.83;;;;;;;;;;5013467;28;20037;-77
2021/08/06 11:46:09;;;;;;;6.05;1.80;;;;;;;;;;5019353;28;20029;-79
2021/08/06 11:48:50;;;;;;;5.20;1.58;;;;;;;;;;5021315;28;20051;-79
2021/08/06 11:51:16;;;;;;;6.10;1.65;;;;;;;;;;5020303;28;20061;-78
2021/08/06 11:53:42;;;;;;;3.65;1.50;;;;;;;;;;5004667;28;20033;-75
2021/08/06 11:56:17;;;;;;;11.45;3.60;;;;;;;;;;5023837;28;20111;-80
2021/08/06 11:58:43;;;;;;;12.63;1.65;;;;;;;;;;5019085;28;20029;-79
2021/08/06 12:01:17;;;;;;;10.50;2.10;;;;;;;;;;5005433;28;20037;-76
2021/08/06 12:03:51;;;;;;;10.70;2.20;;;;;;;;;;5021167;28;20021;-78
2021/08/06 12:06:18;;;;;;;8.55;2.22;;;;;;;;;;5024493;28;20033;-76
2021/08/06 12:08:45;;;;;;;9.63;2.03;;;;;;;;;;5018823;28;20064;-79
2021/08/06 12:11:12;;;;;;;17.65;2.28;;;;;;;;;;5020662;28;20050;-82
2021/08/06 12:13:51;;;;;;;11.93;2.20;;;;;;;;;;5024080;28;20095;-77
2021/08/06 12:16:24;;;;;;;10.65;1.92;;;;;;;;;;5022587;28;20619;-76
2021/08/06 12:18:50;;;;;;;5.05;1.30;;;;;;;;;;5027155;28;20033;-77
2021/08/06 12:21:19;;;;;;;7.85;1.27;;;;;;;;;;5019441;28;20029;-76
2021/08/06 12:23:48;;;;;;;10.10;1.70;;;;;;;;;;5023454;28;20052;-74
2021/08/06 12:26:21;;;;;;;8.52;1.50;;;;;;;;;;5022652;28;20036;-77
2021/08/06 12:29:03;;;;;;;5.55;2.22;;;;;;;;;;5024132;28;20041;-75
2021/08/06 12:31:29;;;;;;;5.20;1.27;;;;;;;;;;5020912;28;20035;-77
2021/08/06 12:34:10;;;;;;;4.60;1.38;;;;;;;;;;5021009;28;20119;-76
2021/08/06 12:36:38;;;;;;;6.20;1.40;;;;;;;;;;5022249;28;20021;-74
2021/08/06 12:39:09;;;;;;;6.43;1.00;;;;;;;;;;5024878;28;20021;-74
2021/08/06 12:41:35;;;;;;;4.72;1.25;;;;;;;;;;5024455;28;20048;-78
2021/08/06 12:44:22;;;;;;;8.13;1.13;;;;;;;;;;5020752;28;20034;-74
2021/08/06 12:47:16;;;;;;;7.05;1.40;;;;;;;;;;5024826;28;20029;-78
2021/08/06 12:50:04;;;;;;;5.43;1.08;;;;;;;;;;5022648;28;20056;-75
2021/08/06 12:52:32;;;;;;;8.15;1.40;;;;;;;;;;5020793;28;20481;-78
2021/08/06 12:54:59;;;;;;;4.78;1.38;;;;;;;;;;5018967;28;20514;-78
2021/08/06 12:57:45;;;;;;;5.10;1.00;;;;;;;;;;5022447;28;20032;-75
2021/08/06 13:00:23;;;;;;;4.55;1.52;;;;;;;;;;5026730;28;20044;-76
2021/08/06 13:03:23;;;;;;;5.55;1.40;;;;;;;;;;5022723;28;20025;-74
2021/08/06 13:05:48;;;;;;;8.48;1.30;;;;;;;;;;5024884;28;20084;-76
2021/08/06 13:08:24;;;;;;;10.77;1.63;;;;;;;;;;5016152;28;20060;-76
2021/08/06 13:11:07;;;;;;;8.63;1.60;;;;;;;;;;5021332;28;20050;-75
2021/08/06 13:13:45;;;;;;;5.32;1.10;;;;;;;;;;5020332;28;20644;-78
2021/08/06 13:16:13;;;;;;;10.05;1.55;;;;;;;;;;5021469;28;20030;-74
2021/08/06 13:18:39;;;;;;;8.63;1.42;;;;;;;;;;5021979;28;20039;-76
2021/08/06 13:21:05;;;;;;;3.88;1.48;;;;;;;;;;5020952;28;20041;-76
2021/08/06 13:23:30;;;;;;;10.60;1.60;;;;;;;;;;5022161;28;20021;-78
2021/08/06 13:25:56;;;;;;;9.55;1.90;;;;;;;;;;5024691;28;20145;-75
2021/08/06 13:28:22;;;;;;;12.15;1.85;;;;;;;;;;5025169;28;20029;-77
2021/08/06 13:30:48;;;;;;;15.93;2.30;;;;;;;;;;5001455;28;20120;-76
2021/08/06 13:33:14;;;;;;;13.40;1.95;;;;;;;;;;5025266;28;20057;-75
2021/08/06 13:35:40;;;;;;;15.55;1.90;;;;;;;;;;5021087;28;20561;-74
2021/08/06 13:38:05;;;;;;;13.10;2.10;;;;;;;;;;4991880;28;20030;-73
2021/08/06 13:40:33;;;;;;;12.40;2.20;;;;;;;;;;5017311;28;20055;-74
2021/08/06 13:42:59;;;;;;;10.77;1.83;;;;;;;;;;5019695;28;20570;-75
2021/08/06 13:45:25;;;;;;;15.30;1.75;;;;;;;;;;5021578;28;20028;-73
2021/08/06 13:47:51;;;;;;;17.30;2.38;;;;;;;;;;5021808;28;20026;-73
2021/08/06 13:50:17;;;;;;;14.25;2.15;;;;;;;;;;5024069;28;20041;-73
2021/08/06 13:52:43;;;;;;;9.30;2.42;;;;;;;;;;5023719;28;20030;-74
2021/08/06 13:55:09;;;;;;;10.90;2.83;;;;;;;;;;5021306;28;20133;-75
2021/08/06 13:57:35;;;;;;;8.48;2.13;;;;;;;;;;4989026;28;20483;-74
2021/08/06 14:00:01;;;;;;;10.07;2.72;;;;;;;;;;5022678;28;20029;-74
2021/08/06 14:02:27;;;;;;;17.02;2.65;;;;;;;;;;5017247;28;20430;-75
2021/08/06 14:04:52;;;;;;;7.63;1.90;;;;;;;;;;5006881;28;20026;-75
2021/08/06 14:07:18;;;;;;;11.07;2.30;;;;;;;;;;5019190;28;20083;-74
2021/08/06 14:09:44;;;;;;;19.45;3.05;;;;;;;;;;5022043;28;20037;-73
2021/08/06 14:12:11;;;;;;;16.58;2.45;;;;;;;;;;5017613;28;20053;-73
2021/08/06 14:14:37;;;;;;;8.70;2.40;;;;;;;;;;5006474;28;20037;-75
2021/08/06 14:17:03;;;;;;;17.35;2.58;;;;;;;;;;5018988;28;20611;-75
2021/08/06 14:19:28;;;;;;;17.65;2.60;;;;;;;;;;5007004;28;20041;-77
2021/08/06 14:21:54;;;;;;;19.80;3.50;;;;;;;;;;5022125;28;20026;-74
2021/08/06 14:24:19;;;;;;;20.75;2.60;;;;;;;;;;5020141;28;20116;-73
2021/08/06 14:26:46;;;;;;;17.27;2.75;;;;;;;;;;4999789;28;20057;-73
2021/08/06 14:29:12;;;;;;;16.95;2.75;;;;;;;;;;5017416;28;20044;-74
2021/08/06 14:31:38;;;;;;;11.77;2.70;;;;;;;;;;5018992;28;20116;-74
2021/08/06 14:34:03;;;;;;;13.48;2.97;;;;;;;;;;5023688;28;20578;-74
2021/08/06 14:36:28;;;;;;;11.40;2.53;;;;;;;;;;5020955;28;20041;-74
2021/08/06 14:38:54;;;;;;;11.75;2.35;;;;;;;;;;5004642;28;20398;-74
2021/08/06 14:41:20;;;;;;;13.82;2.10;;;;;;;;;;5004569;28;20064;-73
2021/08/06 14:43:45;;;;;;;17.92;3.05;;;;;;;;;;5023092;28;20526;-73